Time;durP1;ratioP1;P1;durP2;ratioP2;P2;SDS_P1;SDS_P2;PMS_P1;PMS_P2;Temp;Humidity;BMP_temperature;BMP_pressure;BME280_temperature;BME280_humidity;BME280_pressure;Samples;Min_cycle;Max_cycle;Signal;HPM_P1;HPM_P2
2023/07/28 00:04:50;;;;;;;4.57;3.05;;;;;;;;;;10363356;28;20037;-84
2023/07/28 00:09:51;;;;;;;4.32;2.97;;;;;;;;;;10363854;28;20034;-84
2023/07/28 00:14:52;;;;;;;5.00;2.83;;;;;;;;;;10377444;28;20037;-86
2023/07/28 00:19:53;;;;;;;3.38;2.33;;;;;;;;;;10359948;28;20037;-84
2023/07/28 00:24:54;;;;;;;4.30;2.78;;;;;;;;;;10362806;28;20041;-83
2023/07/28 00:29:55;;;;;;;4.95;3.03;;;;;;;;;;10363489;28;20520;-84
2023/07/28 00:34:56;;;;;;;4.40;2.50;;;;;;;;;;10361303;28;20547;-84
2023/07/28 00:39:57;;;;;;;4.22;2.55;;;;;;;;;;10362334;28;20026;-84
2023/07/28 00:44:58;;;;;;;4.60;2.72;;;;;;;;;;10362867;28;20052;-85
2023/07/28 00:49:59;;;;;;;5.75;2.65;;;;;;;;;;10382653;23;20478;-84
2023/07/28 00:55:00;;;;;;;3.72;2.47;;;;;;;;;;10402324;28;20039;-83
2023/07/28 01:05:06;;;;;;;3.45;2.40;;;;;;;;;;10402042;28;20088;-84
2023/07/28 01:10:09;;;;;;;3.33;2.25;;;;;;;;;;10403264;28;20029;-83
2023/07/28 01:15:10;;;;;;;3.20;2.15;;;;;;;;;;10402785;28;20045;-83
2023/07/28 01:20:11;;;;;;;5.10;2.30;;;;;;;;;;10431239;28;20056;-84
2023/07/28 01:25:15;;;;;;;3.88;2.10;;;;;;;;;;10443273;28;20089;-83
2023/07/28 01:30:16;;;;;;;4.25;2.42;;;;;;;;;;10439994;28;20075;-84
2023/07/28 01:35:17;;;;;;;4.82;2.35;;;;;;;;;;10443255;28;20021;-84
2023/07/28 01:40:19;;;;;;;5.20;1.90;;;;;;;;;;10441151;28;20043;-84
2023/07/28 01:45:20;;;;;;;4.22;2.38;;;;;;;;;;10441866;28;20041;-85
2023/07/28 01:50:21;;;;;;;3.15;2.00;;;;;;;;;;10440936;28;20337;-84
2023/07/28 01:55:22;;;;;;;3.25;1.92;;;;;;;;;;10442007;28;20048;-83
2023/07/28 02:00:23;;;;;;;4.00;2.40;;;;;;;;;;10441931;28;20119;-83
2023/07/28 02:05:24;;;;;;;4.82;2.28;;;;;;;;;;10443421;28;20943;-83
2023/07/28 02:10:27;;;;;;;3.58;2.30;;;;;;;;;;10442635;28;20120;-83
2023/07/28 02:15:28;;;;;;;3.28;2.05;;;;;;;;;;10440768;28;20033;-84
2023/07/28 02:20:29;;;;;;;4.05;2.15;;;;;;;;;;10441889;28;20029;-83
2023/07/28 02:25:30;;;;;;;2.50;2.10;;;;;;;;;;10441143;28;20040;-83
2023/07/28 02:30:31;;;;;;;3.38;2.08;;;;;;;;;;10440073;28;20865;-84
2023/07/28 02:35:32;;;;;;;4.05;2.38;;;;;;;;;;10439285;28;20029;-83
2023/07/28 02:40:33;;;;;;;2.78;2.22;;;;;;;;;;10444145;28;20076;-83
2023/07/28 02:45:34;;;;;;;2.70;2.20;;;;;;;;;;10448410;28;20144;-84
2023/07/28 02:50:35;;;;;;;3.28;2.38;;;;;;;;;;10447038;28;20116;-83
2023/07/28 02:55:44;;;;;;;6.43;2.63;;;;;;;;;;10449179;28;20047;-84
2023/07/28 03:00:46;;;;;;;2.70;2.15;;;;;;;;;;10448863;28;20103;-84
2023/07/28 03:05:47;;;;;;;4.63;2.47;;;;;;;;;;10447806;28;20072;-83
2023/07/28 03:10:48;;;;;;;5.72;2.95;;;;;;;;;;10466409;23;20174;-84
2023/07/28 03:15:49;;;;;;;4.38;2.80;;;;;;;;;;10447447;28;20041;-84
2023/07/28 03:20:50;;;;;;;2.72;2.08;;;;;;;;;;10448148;28;20032;-84
2023/07/28 03:25:51;;;;;;;4.13;2.60;;;;;;;;;;10448421;28;20838;-83
2023/07/28 03:30:52;;;;;;;5.68;2.67;;;;;;;;;;10445245;28;20025;-84
2023/07/28 03:35:53;;;;;;;5.00;2.60;;;;;;;;;;10445585;28;20160;-85
2023/07/28 03:40:54;;;;;;;4.15;2.60;;;;;;;;;;10447578;28;20032;-84
2023/07/28 03:45:55;;;;;;;4.30;2.40;;;;;;;;;;10446133;28;20051;-85
2023/07/28 03:50:56;;;;;;;5.03;2.55;;;;;;;;;;10445822;28;20044;-84
2023/07/28 03:55:58;;;;;;;3.05;2.20;;;;;;;;;;10447524;28;20075;-83
2023/07/28 04:00:59;;;;;;;4.43;2.50;;;;;;;;;;10445942;28;20037;-83
2023/07/28 04:06:00;;;;;;;5.18;2.60;;;;;;;;;;10446471;28;20049;-83
2023/07/28 04:11:01;;;;;;;6.72;2.92;;;;;;;;;;10446279;28;20098;-84
2023/07/28 04:16:02;;;;;;;4.32;2.78;;;;;;;;;;10445112;28;20032;-85
2023/07/28 04:21:05;;;;;;;3.67;2.28;;;;;;;;;;10444423;28;20783;-84
2023/07/28 04:26:06;;;;;;;7.95;2.97;;;;;;;;;;10445825;28;20429;-84
2023/07/28 04:31:07;;;;;;;4.18;2.60;;;;;;;;;;10445016;28;20020;-84
2023/07/28 04:36:08;;;;;;;4.90;2.50;;;;;;;;;;10443085;28;20126;-83
2023/07/28 04:41:09;;;;;;;5.78;2.72;;;;;;;;;;10443426;28;20024;-84
2023/07/28 04:46:10;;;;;;;4.60;2.50;;;;;;;;;;10443518;28;20037;-84
2023/07/28 04:51:11;;;;;;;3.55;2.38;;;;;;;;;;10444294;28;20148;-82
2023/07/28 04:56:12;;;;;;;3.13;2.35;;;;;;;;;;10444729;28;20034;-84
2023/07/28 05:01:13;;;;;;;3.88;2.50;;;;;;;;;;10444706;28;20028;-84
2023/07/28 05:06:14;;;;;;;2.70;2.20;;;;;;;;;;10444558;28;20405;-87
2023/07/28 05:11:15;;;;;;;3.22;2.30;;;;;;;;;;10443025;28;20044;-85
2023/07/28 05:16:16;;;;;;;3.55;2.30;;;;;;;;;;10438378;28;20039;-83
2023/07/28 05:21:17;;;;;;;4.40;2.63;;;;;;;;;;10444085;28;20480;-84
2023/07/28 05:26:18;;;;;;;4.43;2.45;;;;;;;;;;10417705;28;20371;-84
2023/07/28 05:31:19;;;;;;;4.13;2.20;;;;;;;;;;10440268;28;20437;-83
2023/07/28 05:36:21;;;;;;;5.13;2.50;;;;;;;;;;10443995;28;20025;-83
2023/07/28 05:41:21;;;;;;;3.85;2.30;;;;;;;;;;10441686;28;20459;-84
2023/07/28 05:46:23;;;;;;;3.85;2.33;;;;;;;;;;10443273;28;20086;-87
2023/07/28 05:51:24;;;;;;;2.90;2.25;;;;;;;;;;10430048;28;20538;-84
2023/07/28 05:56:25;;;;;;;3.53;2.20;;;;;;;;;;10443025;28;20090;-85
2023/07/28 06:01:27;;;;;;;4.10;2.47;;;;;;;;;;10448906;28;20029;-84
2023/07/28 06:06:28;;;;;;;4.80;2.63;;;;;;;;;;10442368;28;20033;-86
2023/07/28 06:11:29;;;;;;;4.03;2.60;;;;;;;;;;10443910;28;20125;-83
2023/07/28 06:16:31;;;;;;;6.10;2.90;;;;;;;;;;10446143;28;20041;-86
2023/07/28 06:21:32;;;;;;;4.90;3.13;;;;;;;;;;10448736;28;20029;-84
2023/07/28 06:26:33;;;;;;;6.53;3.35;;;;;;;;;;10451000;28;20044;-84
2023/07/28 06:31:34;;;;;;;5.45;3.10;;;;;;;;;;10450723;28;20037;-84
2023/07/28 06:36:35;;;;;;;4.20;3.10;;;;;;;;;;10450929;28;20099;-84
2023/07/28 06:41:36;;;;;;;4.90;3.45;;;;;;;;;;10450069;28;20892;-84
2023/07/28 06:46:37;;;;;;;3.85;3.25;;;;;;;;;;10450116;28;20033;-84
2023/07/28 06:51:38;;;;;;;6.88;3.63;;;;;;;;;;10449799;28;20032;-85
2023/07/28 06:56:40;;;;;;;7.75;3.53;;;;;;;;;;10447834;28;20168;-85
2023/07/28 07:01:41;;;;;;;5.80;3.58;;;;;;;;;;10445687;28;20040;-84
2023/07/28 07:06:42;;;;;;;5.47;3.70;;;;;;;;;;10453614;28;20048;-83
2023/07/28 07:11:43;;;;;;;6.25;4.38;;;;;;;;;;10437523;28;20167;-83
2023/07/28 07:16:44;;;;;;;6.65;4.78;;;;;;;;;;10447850;28;20040;-85
2023/07/28 07:21:47;;;;;;;7.57;5.40;;;;;;;;;;10441514;28;20037;-83
2023/07/28 07:26:48;;;;;;;9.40;5.88;;;;;;;;;;10438085;28;20484;-83
2023/07/28 07:31:54;;;;;;;7.72;5.70;;;;;;;;;;10449244;28;20033;-87
2023/07/28 07:36:56;;;;;;;9.77;7.03;;;;;;;;;;10447618;28;20293;-84
2023/07/28 07:41:57;;;;;;;9.38;7.15;;;;;;;;;;10437732;28;20043;-84
2023/07/28 07:47:01;;;;;;;11.60;7.70;;;;;;;;;;10443208;28;20500;-85
2023/07/28 07:52:02;;;;;;;9.77;6.40;;;;;;;;;;10445552;28;20087;-86
2023/07/28 07:57:03;;;;;;;10.10;6.50;;;;;;;;;;10452396;28;20033;-84
2023/07/28 08:02:05;;;;;;;8.95;6.22;;;;;;;;;;10446441;28;20086;-86
2023/07/28 08:07:06;;;;;;;8.75;5.47;;;;;;;;;;10446749;28;20657;-87
2023/07/28 08:12:07;;;;;;;8.57;6.03;;;;;;;;;;10444500;28;20053;-86
2023/07/28 08:17:09;;;;;;;11.95;6.80;;;;;;;;;;10445063;28;20078;-87
2023/07/28 08:22:12;;;;;;;10.82;7.05;;;;;;;;;;10444580;28;20040;-87
2023/07/28 08:27:13;;;;;;;9.50;6.65;;;;;;;;;;10445792;28;20799;-88
2023/07/28 08:32:14;;;;;;;10.07;7.38;;;;;;;;;;10444595;28;20028;-87
2023/07/28 08:37:15;;;;;;;10.15;6.57;;;;;;;;;;10443661;28;20040;-86
2023/07/28 08:42:16;;;;;;;8.27;6.32;;;;;;;;;;10444069;28;20037;-86
2023/07/28 08:47:17;;;;;;;9.25;6.40;;;;;;;;;;10437177;28;20199;-85
2023/07/28 08:52:18;;;;;;;10.30;5.97;;;;;;;;;;10444475;28;20035;-86
2023/07/28 08:57:20;;;;;;;7.40;5.75;;;;;;;;;;10440416;28;20041;-86
2023/07/28 09:02:21;;;;;;;10.90;6.78;;;;;;;;;;10442876;28;20071;-86
2023/07/28 09:07:22;;;;;;;10.20;6.45;;;;;;;;;;10443423;28;20632;-88
2023/07/28 09:12:24;;;;;;;7.25;5.50;;;;;;;;;;10435472;28;20064;-88
2023/07/28 09:17:25;;;;;;;10.05;6.20;;;;;;;;;;10441511;28;20025;-86
2023/07/28 09:22:26;;;;;;;8.13;5.35;;;;;;;;;;10441855;28;20045;-85
2023/07/28 09:27:29;;;;;;;9.55;6.88;;;;;;;;;;10444129;28;20037;-88
2023/07/28 09:32:33;;;;;;;11.18;7.65;;;;;;;;;;10440127;28;20063;-87
2023/07/28 09:37:35;;;;;;;10.88;7.20;;;;;;;;;;10443407;28;20039;-87
2023/07/28 09:42:36;;;;;;;15.10;8.45;;;;;;;;;;10443433;28;20044;-88
2023/07/28 09:47:38;;;;;;;9.50;6.68;;;;;;;;;;10443566;28;20481;-86
2023/07/28 09:52:42;;;;;;;9.25;6.28;;;;;;;;;;10437044;28;20500;-86
2023/07/28 09:57:49;;;;;;;9.30;6.25;;;;;;;;;;10440736;28;20036;-86
2023/07/28 10:02:50;;;;;;;10.25;7.25;;;;;;;;;;10441823;28;20029;-87
2023/07/28 10:07:52;;;;;;;12.82;7.80;;;;;;;;;;10440625;28;20128;-86
2023/07/28 10:12:57;;;;;;;7.10;5.55;;;;;;;;;;10411277;28;20060;-85
2023/07/28 10:17:59;;;;;;;7.78;5.72;;;;;;;;;;10438559;28;20579;-85
2023/07/28 10:23:14;;;;;;;7.35;4.13;;;;;;;;;;10441921;28;20041;-86
2023/07/28 10:28:38;;;;;;;5.40;4.07;;;;;;;;;;10439352;28;20063;-87
2023/07/28 10:33:39;;;;;;;7.03;4.00;;;;;;;;;;10440139;28;20067;-87
2023/07/28 10:38:41;;;;;;;6.30;3.95;;;;;;;;;;10440909;28;20385;-87
2023/07/28 10:43:42;;;;;;;5.72;3.55;;;;;;;;;;10441674;28;20041;-88
2023/07/28 10:48:44;;;;;;;5.00;3.75;;;;;;;;;;10435897;28;20033;-86
2023/07/28 10:53:45;;;;;;;4.22;3.40;;;;;;;;;;10439421;28;20072;-87
2023/07/28 10:58:46;;;;;;;4.40;3.38;;;;;;;;;;10441796;28;20166;-86
2023/07/28 11:03:48;;;;;;;6.35;3.63;;;;;;;;;;10444460;28;20052;-86
2023/07/28 11:08:49;;;;;;;4.60;2.88;;;;;;;;;;10430378;28;20033;-87
2023/07/28 11:13:50;;;;;;;4.57;3.38;;;;;;;;;;10447652;28;20702;-86
2023/07/28 11:18:51;;;;;;;3.75;2.80;;;;;;;;;;10447296;28;20025;-87
2023/07/28 11:23:53;;;;;;;4.57;3.15;;;;;;;;;;10447434;28;20036;-86
2023/07/28 11:28:55;;;;;;;5.88;2.70;;;;;;;;;;10444635;28;20037;-85
2023/07/28 11:33:56;;;;;;;2.70;2.03;;;;;;;;;;10444822;28;20111;-86
2023/07/28 11:39:03;;;;;;;3.20;2.08;;;;;;;;;;10447234;28;20025;-86
2023/07/28 11:44:04;;;;;;;4.00;2.65;;;;;;;;;;10436108;28;20041;-85
2023/07/28 11:49:14;;;;;;;2.70;2.20;;;;;;;;;;10435412;28;20481;-86
2023/07/28 11:54:15;;;;;;;3.25;2.50;;;;;;;;;;10446423;28;20033;-85
2023/07/28 11:59:17;;;;;;;2.05;1.85;;;;;;;;;;10445050;28;20056;-84
2023/07/28 12:04:31;;;;;;;2.30;2.10;;;;;;;;;;10443826;28;20037;-86
2023/07/28 12:09:33;;;;;;;3.75;2.20;;;;;;;;;;10446390;28;20056;-86
2023/07/28 12:14:34;;;;;;;2.53;2.00;;;;;;;;;;10445345;28;20028;-85
2023/07/28 12:19:41;;;;;;;2.60;1.95;;;;;;;;;;10437619;28;20111;-86
2023/07/28 12:24:42;;;;;;;3.80;1.98;;;;;;;;;;10441680;28;20118;-85
2023/07/28 12:29:43;;;;;;;2.75;2.00;;;;;;;;;;10443034;28;20089;-87
2023/07/28 12:34:44;;;;;;;3.53;2.33;;;;;;;;;;10444784;28;20040;-88
2023/07/28 12:39:45;;;;;;;1.77;1.58;;;;;;;;;;10444223;28;20043;-86
2023/07/28 12:44:46;;;;;;;2.35;2.00;;;;;;;;;;10436842;28;20045;-86
2023/07/28 12:49:47;;;;;;;3.00;1.80;;;;;;;;;;10443806;28;20543;-84
2023/07/28 12:54:48;;;;;;;2.13;1.60;;;;;;;;;;10443350;28;20044;-86
2023/07/28 12:59:50;;;;;;;1.95;1.30;;;;;;;;;;10441241;28;20033;-86
2023/07/28 13:04:51;;;;;;;1.50;1.35;;;;;;;;;;10428247;28;20128;-86
2023/07/28 13:09:52;;;;;;;1.80;1.65;;;;;;;;;;10432741;28;20091;-87
2023/07/28 13:14:53;;;;;;;2.28;1.85;;;;;;;;;;10432572;28;20594;-86
2023/07/28 13:19:54;;;;;;;1.55;1.42;;;;;;;;;;10460450;23;20061;-85
2023/07/28 13:24:55;;;;;;;2.67;1.83;;;;;;;;;;10439219;28;20036;-87
2023/07/28 13:29:58;;;;;;;2.05;1.13;;;;;;;;;;10439961;28;20124;-84
2023/07/28 13:34:59;;;;;;;2.03;1.65;;;;;;;;;;10414886;28;20080;-85
2023/07/28 13:40:00;;;;;;;1.75;1.38;;;;;;;;;;10403375;28;20700;-86
2023/07/28 13:45:01;;;;;;;1.52;1.20;;;;;;;;;;10433116;28;20522;-87
2023/07/28 13:50:03;;;;;;;1.67;1.40;;;;;;;;;;10432759;28;20029;-85
2023/07/28 13:55:11;;;;;;;1.83;1.10;;;;;;;;;;10441770;28;20495;-87
2023/07/28 14:16:12;;;;;;;1.75;1.30;;;;;;;;;;12509612;23;20053;-85
2023/07/28 15:04:35;;;;;;;4.30;1.35;;;;;;;;;;10448783;28;20049;-87
2023/07/28 15:26:05;;;;;;;1.55;1.35;;;;;;;;;;10448947;28;20060;-85
2023/07/28 15:31:06;;;;;;;2.58;1.50;;;;;;;;;;10448453;28;20026;-86
2023/07/28 16:04:17;;;;;;;2.53;1.65;;;;;;;;;;10441260;28;20051;-84
2023/07/28 16:09:27;;;;;;;1.92;1.50;;;;;;;;;;10447483;28;20021;-85
2023/07/28 16:14:28;;;;;;;2.65;1.75;;;;;;;;;;10456252;28;20021;-83
2023/07/28 16:19:29;;;;;;;1.85;1.40;;;;;;;;;;10446639;28;20033;-86
2023/07/28 16:24:30;;;;;;;3.50;2.00;;;;;;;;;;10447827;28;20532;-84
2023/07/28 16:29:31;;;;;;;3.25;2.05;;;;;;;;;;10445659;28;20566;-84
2023/07/28 16:34:33;;;;;;;3.88;1.90;;;;;;;;;;10446080;28;20066;-85
2023/07/28 16:39:34;;;;;;;6.50;5.00;;;;;;;;;;10459636;28;20037;-84
2023/07/28 16:55:55;;;;;;;5.07;2.30;;;;;;;;;;10438691;28;20029;-86
2023/07/28 17:00:56;;;;;;;3.47;1.92;;;;;;;;;;10445079;28;20039;-85
2023/07/28 17:06:00;;;;;;;1.85;1.48;;;;;;;;;;10445951;28;20090;-86
2023/07/28 17:11:05;;;;;;;3.03;1.80;;;;;;;;;;10443996;28;20033;-86
2023/07/28 17:16:06;;;;;;;3.03;1.70;;;;;;;;;;10457172;28;20056;-86
2023/07/28 17:21:32;;;;;;;4.15;1.90;;;;;;;;;;10444274;28;20045;-87
2023/07/28 17:26:33;;;;;;;2.83;1.65;;;;;;;;;;10438476;28;20131;-86
2023/07/28 17:42:52;;;;;;;3.70;2.30;;;;;;;;;;10801802;23;20057;-87
2023/07/28 17:47:53;;;;;;;3.65;2.28;;;;;;;;;;10441453;28;20044;-86
2023/07/28 17:52:54;;;;;;;2.03;1.70;;;;;;;;;;10455144;28;20028;-84
2023/07/28 17:57:56;;;;;;;3.78;2.03;;;;;;;;;;10440505;28;20031;-85
2023/07/28 18:08:36;;;;;;;3.25;2.47;;;;;;;;;;10443013;28;20029;-85
2023/07/28 18:13:37;;;;;;;3.60;1.92;;;;;;;;;;10446906;28;20071;-84
2023/07/28 18:18:38;;;;;;;4.15;2.45;;;;;;;;;;10435758;28;20041;-85
2023/07/28 18:23:40;;;;;;;2.85;2.40;;;;;;;;;;10434211;28;20072;-86
2023/07/28 18:28:41;;;;;;;4.75;2.50;;;;;;;;;;10449745;28;20025;-86
2023/07/28 18:33:42;;;;;;;2.92;2.17;;;;;;;;;;10450064;28;20413;-85
2023/07/28 18:38:44;;;;;;;3.85;2.53;;;;;;;;;;10450084;28;20497;-85
2023/07/28 18:43:45;;;;;;;3.28;2.45;;;;;;;;;;10447782;28;20138;-85
2023/07/28 18:48:46;;;;;;;3.63;2.53;;;;;;;;;;10450524;28;20017;-86
2023/07/28 18:53:47;;;;;;;4.80;3.20;;;;;;;;;;10449663;28;20029;-86
2023/07/28 18:58:48;;;;;;;5.53;3.85;;;;;;;;;;10441505;28;20024;-85
2023/07/28 19:03:49;;;;;;;6.85;4.45;;;;;;;;;;10450207;28;20086;-86
2023/07/28 19:14:32;;;;;;;5.97;4.47;;;;;;;;;;10448731;28;20059;-86
2023/07/28 19:19:33;;;;;;;9.80;4.20;;;;;;;;;;10455898;28;20040;-87
2023/07/28 19:24:34;;;;;;;7.90;4.80;;;;;;;;;;10433113;28;20395;-87
2023/07/28 19:29:36;;;;;;;11.95;4.55;;;;;;;;;;10431702;28;20025;-86
2023/07/28 19:34:37;;;;;;;8.38;6.07;;;;;;;;;;10431555;28;20060;-86
2023/07/28 19:40:14;;;;;;;10.30;6.70;;;;;;;;;;10433291;28;20624;-86
2023/07/28 19:45:18;;;;;;;8.45;5.50;;;;;;;;;;10418674;28;20069;-86
2023/07/28 19:50:19;;;;;;;6.07;4.93;;;;;;;;;;10382743;28;20172;-88
2023/07/28 19:55:20;;;;;;;6.60;3.88;;;;;;;;;;10397444;28;20044;-86
2023/07/28 20:00:22;;;;;;;9.73;5.88;;;;;;;;;;10399595;28;20044;-86
2023/07/28 20:05:23;;;;;;;7.85;5.03;;;;;;;;;;10389628;28;20037;-86
2023/07/28 20:10:24;;;;;;;6.30;5.00;;;;;;;;;;10388138;28;20489;-85
2023/07/28 20:15:25;;;;;;;10.85;7.10;;;;;;;;;;10388197;28;20033;-85
2023/07/28 20:20:26;;;;;;;10.43;6.80;;;;;;;;;;10373695;28;20026;-86
2023/07/28 20:25:27;;;;;;;10.13;7.82;;;;;;;;;;10394649;28;20045;-85
2023/07/28 20:30:29;;;;;;;8.88;6.53;;;;;;;;;;10405967;28;20121;-85
2023/07/28 20:35:30;;;;;;;13.77;9.10;;;;;;;;;;10404878;28;20037;-86
2023/07/28 20:40:31;;;;;;;10.77;7.78;;;;;;;;;;10400253;28;20029;-84
2023/07/28 20:45:32;;;;;;;15.10;10.05;;;;;;;;;;10445774;28;20064;-87
2023/07/28 20:50:33;;;;;;;10.23;7.85;;;;;;;;;;10439270;28;20086;-86
2023/07/28 20:55:34;;;;;;;12.52;8.27;;;;;;;;;;10455427;28;20045;-87
2023/07/28 21:00:35;;;;;;;10.85;8.15;;;;;;;;;;10446681;28;20108;-86
2023/07/28 21:05:36;;;;;;;9.20;6.43;;;;;;;;;;10432232;28;20156;-87
2023/07/28 21:10:37;;;;;;;11.45;6.82;;;;;;;;;;10440922;28;20109;-87
2023/07/28 21:15:38;;;;;;;10.57;6.18;;;;;;;;;;10417729;28;20033;-86
2023/07/28 21:20:39;;;;;;;10.65;6.28;;;;;;;;;;10442214;28;20392;-86
2023/07/28 21:25:41;;;;;;;8.93;6.45;;;;;;;;;;10422301;28;20050;-86
2023/07/28 21:30:43;;;;;;;8.95;5.97;;;;;;;;;;10404948;28;20043;-86
2023/07/28 21:35:44;;;;;;;7.90;5.78;;;;;;;;;;10425131;28;20037;-87
2023/07/28 21:40:45;;;;;;;7.28;5.22;;;;;;;;;;10423754;28;20033;-87
2023/07/28 21:45:46;;;;;;;6.78;5.18;;;;;;;;;;10453400;28;20052;-87
2023/07/28 21:50:48;;;;;;;8.07;5.72;;;;;;;;;;10425767;28;20033;-85
2023/07/28 21:55:49;;;;;;;8.57;4.95;;;;;;;;;;10425303;28;20040;-83
2023/07/28 22:00:50;;;;;;;8.52;5.38;;;;;;;;;;10439221;28;20040;-87
2023/07/28 22:05:51;;;;;;;9.75;4.85;;;;;;;;;;10426018;28;20408;-87
2023/07/28 22:10:52;;;;;;;9.65;4.30;;;;;;;;;;10425017;28;20029;-88
2023/07/28 22:15:53;;;;;;;7.03;4.38;;;;;;;;;;10459465;28;20032;-88
2023/07/28 22:20:54;;;;;;;8.32;5.57;;;;;;;;;;10428870;28;20036;-87
2023/07/28 22:25:55;;;;;;;8.25;5.10;;;;;;;;;;10439760;28;20072;-88
2023/07/28 22:30:56;;;;;;;7.80;5.45;;;;;;;;;;10444830;28;20447;-88
2023/07/28 22:35:57;;;;;;;8.57;5.65;;;;;;;;;;10423817;28;20029;-88
2023/07/28 22:40:58;;;;;;;7.50;5.55;;;;;;;;;;10418401;28;20599;-88
2023/07/28 22:45:59;;;;;;;10.30;6.03;;;;;;;;;;10404888;28;20140;-88
2023/07/28 22:51:00;;;;;;;9.73;6.68;;;;;;;;;;10379226;28;20021;-87
2023/07/28 22:56:01;;;;;;;9.57;6.22;;;;;;;;;;10396301;28;20033;-86
2023/07/28 23:01:02;;;;;;;11.77;7.82;;;;;;;;;;10390194;28;20038;-87
2023/07/28 23:06:03;;;;;;;10.38;6.95;;;;;;;;;;10388116;28;20041;-87
2023/07/28 23:11:04;;;;;;;10.85;8.10;;;;;;;;;;10408772;28;20103;-88
2023/07/28 23:16:05;;;;;;;19.55;11.45;;;;;;;;;;10401830;28;20401;-86
2023/07/28 23:21:06;;;;;;;12.27;9.90;;;;;;;;;;10392732;28;20041;-86
2023/07/28 23:26:08;;;;;;;12.32;10.02;;;;;;;;;;10404625;28;20582;-88
2023/07/28 23:31:16;;;;;;;13.40;10.13;;;;;;;;;;10390012;28;20552;-87
2023/07/28 23:36:17;;;;;;;13.50;9.40;;;;;;;;;;10404839;28;20040;-86
2023/07/28 23:41:18;;;;;;;14.80;9.68;;;;;;;;;;10386131;28;20673;-86
2023/07/28 23:46:20;;;;;;;14.63;9.50;;;;;;;;;;10418457;28;20056;-87
2023/07/28 23:51:21;;;;;;;15.23;11.18;;;;;;;;;;10425515;28;20124;-87
2023/07/28 23:56:22;;;;;;;16.85;12.23;;;;;;;;;;10427793;28;20063;-88
